createdAt,value
2022-10-17T00:01:41.241Z,24.90
2022-10-17T00:04:27.804Z,24.90
2022-10-17T00:07:56.752Z,24.90
2022-10-17T00:11:38.788Z,24.80
2022-10-17T00:22:09.948Z,24.80
2022-10-17T00:25:32.136Z,24.80
2022-10-17T00:28:16.748Z,24.80
2022-10-17T00:31:59.319Z,24.80
2022-10-17T00:42:45.438Z,24.80
2022-10-17T00:46:12.629Z,24.80
2022-10-17T00:49:09.628Z,24.80
2022-10-17T00:52:15.196Z,24.80
2022-10-17T00:55:24.010Z,24.80
2022-10-17T00:58:45.263Z,24.80
2022-10-17T01:02:16.840Z,24.80
2022-10-17T01:05:22.572Z,24.80
2022-10-17T01:08:25.430Z,24.80
2022-10-17T01:12:07.133Z,24.80
2022-10-17T01:31:45.566Z,24.80
2022-10-17T01:40:11.719Z,24.80
2022-10-17T01:44:05.158Z,24.80
2022-10-17T02:05:29.958Z,24.70
2022-10-17T02:09:16.499Z,24.70
2022-10-17T02:13:35.729Z,24.50
2022-10-17T02:20:41.436Z,24.40
2022-10-17T02:24:29.379Z,24.40
2022-10-17T02:35:22.385Z,24.20
2022-10-17T02:38:39.317Z,24.10
2022-10-17T02:50:11.616Z,24.30
2022-10-17T02:54:18.591Z,24.30
2022-10-17T02:57:43.296Z,24.20
2022-10-17T04:27:28.928Z,24.00
2022-10-17T04:30:00.694Z,24.00
2022-10-17T04:32:35.952Z,23.90
2022-10-17T04:35:28.638Z,23.80
2022-10-17T04:38:35.254Z,23.80
2022-10-17T04:48:17.750Z,24.00
2022-10-17T04:51:51.695Z,24.00
2022-10-17T05:33:06.006Z,24.30
2022-10-17T07:12:53.732Z,24.80
2022-10-17T07:19:32.240Z,24.80
2022-10-17T07:22:31.187Z,24.80
2022-10-17T07:26:29.188Z,24.90
2022-10-17T07:51:48.029Z,25.10
2022-10-17T07:55:19.300Z,25.00
2022-10-17T07:59:02.591Z,24.80
2022-10-17T08:16:30.358Z,24.60
2022-10-17T08:44:30.288Z,24.40
2022-10-17T09:42:24.321Z,24.70
2022-10-17T09:45:12.247Z,24.60
2022-10-17T09:47:52.259Z,24.70
2022-10-17T09:51:08.183Z,24.70
2022-10-17T09:54:34.780Z,24.70
2022-10-17T10:15:40.784Z,24.90
2022-10-17T10:35:08.732Z,24.90
2022-10-17T10:55:57.647Z,25.00
2022-10-17T10:59:06.316Z,25.00
2022-10-17T11:02:48.975Z,25.00
2022-10-17T11:05:56.931Z,25.00
2022-10-17T11:09:08.854Z,25.10
2022-10-17T12:29:50.829Z,25.10
2022-10-17T12:33:16.758Z,25.10
2022-10-17T12:35:49.677Z,25.10
2022-10-17T12:38:49.212Z,25.20
2022-10-17T12:42:33.909Z,25.10
2022-10-17T12:46:14.856Z,25.10
2022-10-17T12:49:49.697Z,25.20
2022-10-17T12:53:16.875Z,25.30
2022-10-17T12:56:32.464Z,25.20
2022-10-17T12:59:38.040Z,25.20
2022-10-17T13:02:52.314Z,25.30
2022-10-17T13:05:46.110Z,25.30
2022-10-17T15:08:27.904Z,25.00
2022-10-17T15:15:27.891Z,24.90
2022-10-17T15:49:01.331Z,25.00
2022-10-17T16:01:03.198Z,25.10
2022-10-17T16:12:44.202Z,24.90
2022-10-17T16:16:17.887Z,24.80
2022-10-17T16:19:37.916Z,24.80
2022-10-17T16:22:47.714Z,24.70
2022-10-17T16:25:45.634Z,24.60
2022-10-17T16:28:42.376Z,24.60
2022-10-17T16:31:41.887Z,24.70
2022-10-17T16:34:47.827Z,24.60
2022-10-17T16:37:47.854Z,24.50
2022-10-17T16:40:54.186Z,24.70
2022-10-17T16:44:09.127Z,24.80
2022-10-17T16:47:06.250Z,24.90
2022-10-17T16:50:06.274Z,25.00
2022-10-17T16:53:11.479Z,25.10
2022-10-17T16:56:13.923Z,25.10
2022-10-17T16:59:17.867Z,25.20
2022-10-17T17:02:04.623Z,25.20
2022-10-17T17:04:59.584Z,25.20
2022-10-17T17:08:10.362Z,25.30
2022-10-17T17:11:17.869Z,25.20
2022-10-17T17:14:24.519Z,25.20
2022-10-17T17:17:37.331Z,25.00
2022-10-17T17:20:40.798Z,24.90
2022-10-17T17:23:42.544Z,24.90
2022-10-17T17:26:53.781Z,24.80
2022-10-17T17:30:12.674Z,24.80
2022-10-17T17:33:30.704Z,24.80
2022-10-17T17:36:42.734Z,24.80
2022-10-17T17:39:54.767Z,24.70
2022-10-17T17:43:12.808Z,24.80
2022-10-17T17:46:37.857Z,24.80
2022-10-17T17:49:47.989Z,24.80
2022-10-17T17:52:47.999Z,24.90
2022-10-17T17:56:00.935Z,25.00
2022-10-17T17:59:12.964Z,24.90
2022-10-17T18:02:03.043Z,24.90
2022-10-17T18:05:00.138Z,24.90
2022-10-17T18:08:07.499Z,25.00
2022-10-17T18:11:07.078Z,25.00
2022-10-17T18:14:13.098Z,25.00
2022-10-17T18:17:18.553Z,25.00
2022-10-17T18:20:42.252Z,25.00
2022-10-17T18:24:00.327Z,25.10
2022-10-17T18:33:19.070Z,25.10
2022-10-17T18:36:42.407Z,25.10
2022-10-17T18:40:18.446Z,25.10
2022-10-17T18:53:25.477Z,25.10
2022-10-17T18:56:55.508Z,25.10
2022-10-17T19:00:19.539Z,25.10
2022-10-17T19:03:49.570Z,25.20
2022-10-17T19:07:42.716Z,25.10
2022-10-17T19:11:13.640Z,25.20
2022-10-17T19:14:44.083Z,25.10
